Time;durP1;ratioP1;P1;durP2;ratioP2;P2;SDS_P1;SDS_P2;PMS_P1;PMS_P2;Temp;Humidity;BMP_temperature;BMP_pressure;BME280_temperature;BME280_humidity;BME280_pressure;Samples;Min_cycle;Max_cycle;Signal;HPM_P1;HPM_P2
2023/06/24 00:00:14;;;;;;;16.77;11.70;;;;;;;;;;5013234;28;20453;-65
2023/06/24 00:02:45;;;;;;;13.00;10.50;;;;;;;;;;5013586;28;20928;-65
2023/06/24 00:05:13;;;;;;;12.90;11.17;;;;;;;;;;5013278;28;20439;-65
2023/06/24 00:07:44;;;;;;;10.70;9.60;;;;;;;;;;5013339;28;20475;-64
2023/06/24 00:10:12;;;;;;;11.53;10.30;;;;;;;;;;5013616;28;20442;-65
2023/06/24 00:12:41;;;;;;;12.20;11.00;;;;;;;;;;5013144;28;20489;-65
2023/06/24 00:15:09;;;;;;;12.80;11.10;;;;;;;;;;5013450;28;20474;-65
2023/06/24 00:17:37;;;;;;;12.67;10.63;;;;;;;;;;5013307;28;20849;-65
2023/06/24 00:20:07;;;;;;;11.97;10.70;;;;;;;;;;5012744;28;20472;-65
2023/06/24 00:22:35;;;;;;;15.10;12.13;;;;;;;;;;5013468;28;20439;-65
2023/06/24 00:25:02;;;;;;;12.00;10.70;;;;;;;;;;5012946;28;20526;-65
2023/06/24 00:27:30;;;;;;;12.67;11.37;;;;;;;;;;5012841;28;20969;-65
2023/06/24 00:29:57;;;;;;;12.40;10.30;;;;;;;;;;5012857;28;20962;-65
2023/06/24 00:32:24;;;;;;;12.90;10.97;;;;;;;;;;5012715;28;21004;-65
2023/06/24 00:34:51;;;;;;;12.73;10.97;;;;;;;;;;5013585;28;20448;-65
2023/06/24 00:37:18;;;;;;;18.63;11.10;;;;;;;;;;5013226;28;20440;-65
2023/06/24 00:39:47;;;;;;;12.70;11.40;;;;;;;;;;5013118;28;20443;-65
2023/06/24 00:42:14;;;;;;;13.17;11.80;;;;;;;;;;5012691;28;20449;-65
2023/06/24 00:44:41;;;;;;;14.37;12.30;;;;;;;;;;5013033;28;20882;-65
2023/06/24 00:47:09;;;;;;;12.13;11.03;;;;;;;;;;5012946;28;20446;-65
2023/06/24 00:49:37;;;;;;;14.03;11.20;;;;;;;;;;5013069;28;20447;-65
2023/06/24 00:52:04;;;;;;;12.13;10.93;;;;;;;;;;5012452;28;20493;-65
2023/06/24 00:54:31;;;;;;;14.53;11.87;;;;;;;;;;5013145;28;20443;-65
2023/06/24 00:57:01;;;;;;;12.67;11.37;;;;;;;;;;5012831;28;20450;-65
2023/06/24 00:59:30;;;;;;;11.90;10.80;;;;;;;;;;5012943;28;20457;-64
2023/06/24 01:01:57;;;;;;;11.80;10.60;;;;;;;;;;5012826;28;20445;-64
2023/06/24 01:04:25;;;;;;;11.23;10.13;;;;;;;;;;5012936;28;20451;-65
2023/06/24 01:06:52;;;;;;;13.30;12.10;;;;;;;;;;5012764;28;20597;-67
2023/06/24 01:09:19;;;;;;;13.00;10.50;;;;;;;;;;5012563;28;20449;-66
2023/06/24 01:11:48;;;;;;;12.37;11.13;;;;;;;;;;5012368;28;20497;-66
2023/06/24 01:14:19;;;;;;;13.90;12.37;;;;;;;;;;5012442;28;20484;-67
2023/06/24 01:16:53;;;;;;;13.40;12.10;;;;;;;;;;5012835;28;20434;-66
2023/06/24 01:19:35;;;;;;;17.00;11.70;;;;;;;;;;5015511;28;20436;-65
2023/06/24 01:22:11;;;;;;;13.70;12.23;;;;;;;;;;5016579;28;20449;-66
2023/06/24 01:24:48;;;;;;;13.73;12.30;;;;;;;;;;5016605;28;20421;-65
2023/06/24 01:27:30;;;;;;;13.50;12.07;;;;;;;;;;5016599;28;20437;-65
2023/06/24 01:30:08;;;;;;;14.20;12.47;;;;;;;;;;5015957;28;20428;-65
2023/06/24 01:32:38;;;;;;;14.10;12.23;;;;;;;;;;5016208;28;20503;-65
2023/06/24 01:35:10;;;;;;;14.07;12.67;;;;;;;;;;5016052;28;20455;-65
2023/06/24 01:37:39;;;;;;;14.30;12.03;;;;;;;;;;5015774;28;20530;-66
2023/06/24 01:40:10;;;;;;;13.93;12.60;;;;;;;;;;5015756;28;20448;-65
2023/06/24 01:42:38;;;;;;;13.37;11.93;;;;;;;;;;5016144;28;20469;-65
2023/06/24 01:45:07;;;;;;;13.30;12.00;;;;;;;;;;5015911;28;20447;-65
2023/06/24 01:47:37;;;;;;;13.13;11.83;;;;;;;;;;5015865;28;20461;-65
2023/06/24 01:50:05;;;;;;;13.90;12.60;;;;;;;;;;5016376;28;20445;-66
2023/06/24 01:52:34;;;;;;;13.80;12.40;;;;;;;;;;5016073;28;20472;-66
2023/06/24 01:55:03;;;;;;;15.63;13.80;;;;;;;;;;5015889;28;20485;-65
2023/06/24 01:57:31;;;;;;;13.33;11.97;;;;;;;;;;5015295;28;20460;-65
2023/06/24 01:59:59;;;;;;;14.13;12.37;;;;;;;;;;5016027;28;20444;-66
2023/06/24 02:02:27;;;;;;;14.33;12.83;;;;;;;;;;5015505;28;20541;-66
2023/06/24 02:04:57;;;;;;;14.43;12.93;;;;;;;;;;5015605;28;20484;-65
2023/06/24 02:07:25;;;;;;;13.33;12.13;;;;;;;;;;5015587;28;20815;-65
2023/06/24 02:09:53;;;;;;;15.07;12.70;;;;;;;;;;5015797;28;20446;-65
2023/06/24 02:12:20;;;;;;;14.27;12.77;;;;;;;;;;5014866;28;20469;-65
2023/06/24 02:14:49;;;;;;;15.17;13.60;;;;;;;;;;5015526;28;20795;-65
2023/06/24 02:17:16;;;;;;;18.43;13.67;;;;;;;;;;5015515;28;20439;-65
2023/06/24 02:19:44;;;;;;;19.00;13.07;;;;;;;;;;5014704;28;20453;-67
2023/06/24 02:22:13;;;;;;;13.60;12.30;;;;;;;;;;5016041;28;20432;-65
2023/06/24 02:24:42;;;;;;;14.30;12.73;;;;;;;;;;5015067;28;20775;-65
2023/06/24 02:27:10;;;;;;;17.23;13.80;;;;;;;;;;5015165;28;20446;-65
2023/06/24 02:29:37;;;;;;;14.80;13.30;;;;;;;;;;5014105;28;20448;-66
2023/06/24 02:32:05;;;;;;;15.33;13.83;;;;;;;;;;5014911;28;20450;-65
2023/06/24 02:34:32;;;;;;;13.63;12.13;;;;;;;;;;5014677;28;20818;-65
2023/06/24 02:36:59;;;;;;;16.70;12.53;;;;;;;;;;5014865;28;20445;-65
2023/06/24 02:39:28;;;;;;;15.30;13.70;;;;;;;;;;5014947;28;20470;-65
2023/06/24 02:41:55;;;;;;;15.70;13.83;;;;;;;;;;5014930;28;20452;-66
2023/06/24 02:44:22;;;;;;;15.07;13.60;;;;;;;;;;5014339;28;20453;-65
2023/06/24 02:46:50;;;;;;;14.83;13.33;;;;;;;;;;5014804;28;20793;-66
2023/06/24 02:49:18;;;;;;;14.20;12.80;;;;;;;;;;5014646;28;20448;-65
2023/06/24 02:51:45;;;;;;;15.90;13.83;;;;;;;;;;5014988;28;20449;-65
2023/06/24 02:54:13;;;;;;;15.33;13.70;;;;;;;;;;5014616;28;20485;-66
2023/06/24 02:56:43;;;;;;;16.60;13.27;;;;;;;;;;5014815;28;20465;-65
2023/06/24 02:59:10;;;;;;;16.70;14.67;;;;;;;;;;5014682;28;20440;-65
2023/06/24 03:01:39;;;;;;;20.50;14.57;;;;;;;;;;5014480;28;20474;-64
2023/06/24 03:04:07;;;;;;;18.90;13.20;;;;;;;;;;5014954;28;20437;-65
2023/06/24 03:06:36;;;;;;;15.00;13.40;;;;;;;;;;5014060;28;20451;-65
2023/06/24 03:09:04;;;;;;;16.33;14.83;;;;;;;;;;5014547;28;20476;-65
2023/06/24 03:11:31;;;;;;;15.23;13.77;;;;;;;;;;5014502;28;20454;-65
2023/06/24 03:14:01;;;;;;;18.80;14.67;;;;;;;;;;5014231;28;20481;-65
2023/06/24 03:16:28;;;;;;;16.60;14.73;;;;;;;;;;5013971;28;20456;-67
2023/06/24 03:18:55;;;;;;;18.50;14.30;;;;;;;;;;5014488;28;20453;-65
2023/06/24 03:21:28;;;;;;;15.93;14.33;;;;;;;;;;5014107;28;20475;-66
2023/06/24 03:23:55;;;;;;;17.00;14.03;;;;;;;;;;5014067;28;20437;-66
2023/06/24 03:26:22;;;;;;;17.10;12.97;;;;;;;;;;5014120;28;20447;-66
2023/06/24 03:28:49;;;;;;;14.80;13.20;;;;;;;;;;5013644;28;20448;-65
2023/06/24 03:31:23;;;;;;;17.13;14.10;;;;;;;;;;5013676;28;20449;-66
2023/06/24 03:33:50;;;;;;;14.53;13.07;;;;;;;;;;5013876;28;20472;-65
2023/06/24 03:36:17;;;;;;;16.40;14.77;;;;;;;;;;5013543;28;20539;-67
2023/06/24 03:38:44;;;;;;;16.00;13.53;;;;;;;;;;5013923;28;20799;-68
2023/06/24 03:41:11;;;;;;;17.10;14.70;;;;;;;;;;5013963;28;20446;-67
2023/06/24 03:43:39;;;;;;;14.70;13.10;;;;;;;;;;5013635;28;20460;-67
2023/06/24 03:46:06;;;;;;;14.73;13.23;;;;;;;;;;5013650;28;20444;-67
2023/06/24 03:48:34;;;;;;;19.90;14.33;;;;;;;;;;5013907;28;20445;-67
2023/06/24 03:51:01;;;;;;;16.30;13.83;;;;;;;;;;5013719;28;20775;-67
2023/06/24 03:53:29;;;;;;;18.33;14.67;;;;;;;;;;5013356;28;21006;-69
2023/06/24 03:55:56;;;;;;;16.20;14.60;;;;;;;;;;5013233;28;20947;-67
2023/06/24 03:58:23;;;;;;;14.30;12.80;;;;;;;;;;5013555;28;20448;-67
2023/06/24 04:00:50;;;;;;;17.13;12.90;;;;;;;;;;5020632;28;20448;-68
2023/06/24 04:03:18;;;;;;;14.10;12.33;;;;;;;;;;5012473;28;20458;-67
2023/06/24 04:05:47;;;;;;;15.40;12.70;;;;;;;;;;5012177;28;20504;-68
2023/06/24 04:08:14;;;;;;;13.43;12.17;;;;;;;;;;5012481;28;20446;-68
2023/06/24 04:10:43;;;;;;;14.03;12.63;;;;;;;;;;5012069;28;20452;-67
2023/06/24 04:13:10;;;;;;;14.63;12.93;;;;;;;;;;5011735;28;20957;-69
2023/06/24 04:15:37;;;;;;;17.00;13.70;;;;;;;;;;5012418;28;20804;-69
2023/06/24 04:18:04;;;;;;;18.07;14.00;;;;;;;;;;5012682;28;20765;-68
2023/06/24 04:20:32;;;;;;;15.17;13.50;;;;;;;;;;5011576;28;20482;-69
2023/06/24 04:23:00;;;;;;;13.60;12.30;;;;;;;;;;5012794;28;20444;-67
2023/06/24 04:25:27;;;;;;;14.50;13.10;;;;;;;;;;5012632;28;20525;-67
2023/06/24 04:27:55;;;;;;;15.37;13.67;;;;;;;;;;5012640;28;20556;-67
2023/06/24 04:30:22;;;;;;;17.20;13.10;;;;;;;;;;5012511;28;20451;-68
2023/06/24 04:32:49;;;;;;;13.80;12.47;;;;;;;;;;5012561;28;20455;-67
2023/06/24 04:35:16;;;;;;;16.23;13.63;;;;;;;;;;5012443;28;20488;-70
2023/06/24 04:37:43;;;;;;;15.37;13.53;;;;;;;;;;5012762;28;20536;-68
2023/06/24 04:40:13;;;;;;;18.23;14.10;;;;;;;;;;5012193;28;20448;-68
2023/06/24 04:42:40;;;;;;;15.27;13.70;;;;;;;;;;5012363;28;20486;-68
2023/06/24 04:45:08;;;;;;;14.87;13.47;;;;;;;;;;5012579;28;20577;-70
2023/06/24 04:47:35;;;;;;;17.87;14.83;;;;;;;;;;5012575;28;20809;-67
2023/06/24 04:50:03;;;;;;;16.90;14.20;;;;;;;;;;5012446;28;20806;-68
2023/06/24 04:52:30;;;;;;;17.17;14.30;;;;;;;;;;5012841;28;20542;-67
2023/06/24 04:54:57;;;;;;;15.33;13.70;;;;;;;;;;5016751;28;20487;-68
2023/06/24 04:57:28;;;;;;;15.20;13.30;;;;;;;;;;5016851;28;20452;-67
2023/06/24 04:59:55;;;;;;;15.10;13.60;;;;;;;;;;5016262;28;20441;-68
2023/06/24 05:02:22;;;;;;;16.67;14.93;;;;;;;;;;5016617;28;20452;-67
2023/06/24 05:04:49;;;;;;;16.10;13.90;;;;;;;;;;5016340;28;20447;-67
2023/06/24 05:07:16;;;;;;;15.67;13.73;;;;;;;;;;5016283;28;20552;-68
2023/06/24 05:09:44;;;;;;;18.57;14.50;;;;;;;;;;5016148;28;20445;-67
2023/06/24 05:12:11;;;;;;;17.07;14.93;;;;;;;;;;5016394;28;20680;-67
2023/06/24 05:14:40;;;;;;;15.17;13.67;;;;;;;;;;5016444;28;20487;-67
2023/06/24 05:17:07;;;;;;;15.17;13.67;;;;;;;;;;5016532;28;20457;-67
2023/06/24 05:19:34;;;;;;;16.87;15.17;;;;;;;;;;5015946;28;20461;-68
2023/06/24 05:22:01;;;;;;;15.43;13.90;;;;;;;;;;5016356;28;20530;-67
2023/06/24 05:24:28;;;;;;;19.13;14.77;;;;;;;;;;5016296;28;20452;-67
2023/06/24 05:26:55;;;;;;;17.20;14.93;;;;;;;;;;5015590;28;20464;-67
2023/06/24 05:29:23;;;;;;;17.87;13.73;;;;;;;;;;5015835;28;20442;-68
2023/06/24 05:31:51;;;;;;;19.40;14.10;;;;;;;;;;5015747;28;20549;-66
2023/06/24 05:34:18;;;;;;;15.07;13.57;;;;;;;;;;5015847;28;20546;-66
2023/06/24 05:36:46;;;;;;;16.87;15.07;;;;;;;;;;5016145;28;20450;-66
2023/06/24 05:39:13;;;;;;;15.57;13.97;;;;;;;;;;5015925;28;20452;-65
2023/06/24 05:41:40;;;;;;;19.17;14.17;;;;;;;;;;5015620;28;20476;-67
2023/06/24 05:44:09;;;;;;;16.73;14.10;;;;;;;;;;5015618;28;20455;-70
2023/06/24 05:46:36;;;;;;;17.50;15.20;;;;;;;;;;5015174;28;20447;-68
2023/06/24 05:49:05;;;;;;;17.13;15.33;;;;;;;;;;5015256;28;20796;-68
2023/06/24 05:51:32;;;;;;;19.47;14.20;;;;;;;;;;5015367;28;20471;-68
2023/06/24 05:53:59;;;;;;;17.60;13.93;;;;;;;;;;5015637;28;20471;-68
2023/06/24 05:56:27;;;;;;;15.80;13.33;;;;;;;;;;5015285;28;20450;-68
2023/06/24 05:58:54;;;;;;;16.80;14.37;;;;;;;;;;5015473;28;20462;-68
2023/06/24 06:01:21;;;;;;;21.60;14.10;;;;;;;;;;5014969;28;20470;-68
2023/06/24 06:03:48;;;;;;;18.93;15.50;;;;;;;;;;5015706;28;20788;-68
2023/06/24 06:06:17;;;;;;;15.60;14.10;;;;;;;;;;5014940;28;20534;-70
2023/06/24 06:08:44;;;;;;;15.60;14.00;;;;;;;;;;5014734;28;20834;-67
2023/06/24 06:11:11;;;;;;;14.13;11.93;;;;;;;;;;5015263;28;20893;-70
2023/06/24 06:13:39;;;;;;;13.53;12.20;;;;;;;;;;5015082;28;20451;-69
2023/06/24 06:16:07;;;;;;;14.33;12.83;;;;;;;;;;5015104;28;20443;-70
2023/06/24 06:18:34;;;;;;;18.30;11.50;;;;;;;;;;5014974;28;20448;-71
2023/06/24 06:21:01;;;;;;;16.90;12.03;;;;;;;;;;5014992;28;20493;-70
2023/06/24 06:23:30;;;;;;;16.80;13.77;;;;;;;;;;5013506;28;20448;-67
2023/06/24 06:25:57;;;;;;;19.83;14.40;;;;;;;;;;5014381;28;20458;-67
2023/06/24 06:28:24;;;;;;;16.50;14.77;;;;;;;;;;5014775;28;20447;-67
2023/06/24 06:30:51;;;;;;;16.03;13.10;;;;;;;;;;5014631;28;20452;-67
2023/06/24 06:33:18;;;;;;;12.30;11.10;;;;;;;;;;5015617;28;20443;-67
2023/06/24 06:35:46;;;;;;;12.67;11.40;;;;;;;;;;5014837;28;20479;-67
2023/06/24 06:38:13;;;;;;;13.07;11.77;;;;;;;;;;5014984;28;20445;-67
2023/06/24 06:40:41;;;;;;;18.43;11.27;;;;;;;;;;5015133;28;20447;-67
2023/06/24 06:43:08;;;;;;;12.30;10.57;;;;;;;;;;5014357;28;20443;-67
2023/06/24 06:45:36;;;;;;;12.73;10.47;;;;;;;;;;5014319;28;20461;-67
2023/06/24 06:48:06;;;;;;;11.17;10.17;;;;;;;;;;5013925;28;20454;-66
2023/06/24 06:50:34;;;;;;;10.83;9.83;;;;;;;;;;5014559;28;20513;-66
2023/06/24 06:53:01;;;;;;;12.53;10.20;;;;;;;;;;5014530;28;20505;-67
2023/06/24 06:55:28;;;;;;;12.80;9.07;;;;;;;;;;5014629;28;20484;-66
2023/06/24 06:57:57;;;;;;;11.83;10.73;;;;;;;;;;5014563;28;20458;-66
2023/06/24 07:00:24;;;;;;;13.20;11.90;;;;;;;;;;5014506;28;20448;-66
2023/06/24 07:02:51;;;;;;;13.83;10.90;;;;;;;;;;5013885;28;20954;-66
2023/06/24 07:05:19;;;;;;;12.90;9.90;;;;;;;;;;5013531;28;20964;-66
2023/06/24 07:07:46;;;;;;;17.77;9.70;;;;;;;;;;5013904;28;20443;-68
2023/06/24 07:10:13;;;;;;;11.13;9.53;;;;;;;;;;5014006;28;20455;-66
2023/06/24 07:12:40;;;;;;;11.87;9.50;;;;;;;;;;5013894;28;20446;-68
2023/06/24 07:15:10;;;;;;;13.60;10.07;;;;;;;;;;5014188;28;20483;-68
2023/06/24 07:17:37;;;;;;;12.40;9.07;;;;;;;;;;5013819;28;20495;-67
2023/06/24 07:20:05;;;;;;;11.30;9.70;;;;;;;;;;5014064;28;20473;-68
2023/06/24 07:22:32;;;;;;;11.27;10.27;;;;;;;;;;5013257;28;20447;-67
2023/06/24 07:25:00;;;;;;;10.13;9.10;;;;;;;;;;5013742;28;20911;-67
2023/06/24 07:27:27;;;;;;;14.57;10.73;;;;;;;;;;5013364;28;20782;-67
2023/06/24 07:29:54;;;;;;;11.50;10.40;;;;;;;;;;5013325;28;20936;-67
2023/06/24 07:32:23;;;;;;;11.33;9.73;;;;;;;;;;5014221;28;20440;-67
2023/06/24 07:34:50;;;;;;;11.70;10.50;;;;;;;;;;5013857;28;21026;-67
2023/06/24 07:37:17;;;;;;;10.90;9.80;;;;;;;;;;5013564;28;20951;-67
2023/06/24 07:39:44;;;;;;;11.83;9.07;;;;;;;;;;5013956;28;20548;-66
2023/06/24 07:42:18;;;;;;;12.20;10.50;;;;;;;;;;5013602;28;20445;-66
2023/06/24 07:44:45;;;;;;;11.33;9.77;;;;;;;;;;5013195;28;20428;-67
2023/06/24 07:47:13;;;;;;;12.17;9.97;;;;;;;;;;5013241;28;20448;-68
2023/06/24 07:49:41;;;;;;;12.23;11.00;;;;;;;;;;5013197;28;20443;-67
2023/06/24 07:52:09;;;;;;;11.50;10.40;;;;;;;;;;5012957;28;20458;-67
2023/06/24 07:54:36;;;;;;;15.60;12.07;;;;;;;;;;5013533;28;20831;-67
2023/06/24 07:57:03;;;;;;;13.20;11.27;;;;;;;;;;5013593;28;20770;-67
2023/06/24 07:59:30;;;;;;;15.53;11.37;;;;;;;;;;5013191;28;20447;-66
2023/06/24 08:01:58;;;;;;;13.17;11.87;;;;;;;;;;5013142;28;20491;-67
2023/06/24 08:04:25;;;;;;;14.43;12.20;;;;;;;;;;5012776;28;20450;-67
2023/06/24 08:06:54;;;;;;;15.70;12.50;;;;;;;;;;5013275;28;20607;-68
2023/06/24 08:09:21;;;;;;;14.43;12.93;;;;;;;;;;5012833;28;20457;-69
2023/06/24 08:11:48;;;;;;;14.60;13.07;;;;;;;;;;5013358;28;20530;-67
2023/06/24 08:14:15;;;;;;;14.43;11.30;;;;;;;;;;5013269;28;20448;-67
2023/06/24 08:16:42;;;;;;;13.43;11.50;;;;;;;;;;5013320;28;20444;-68
2023/06/24 08:19:10;;;;;;;12.57;11.33;;;;;;;;;;5012958;28;20926;-67
2023/06/24 08:21:37;;;;;;;13.90;12.33;;;;;;;;;;5012726;28;20572;-68
2023/06/24 08:24:06;;;;;;;16.60;12.20;;;;;;;;;;5012475;28;20446;-68
2023/06/24 08:26:33;;;;;;;13.87;12.67;;;;;;;;;;5012577;28;20931;-68
2023/06/24 08:29:01;;;;;;;13.20;11.80;;;;;;;;;;5014839;28;20528;-68
2023/06/24 08:31:29;;;;;;;17.40;11.77;;;;;;;;;;5016921;28;20446;-67
2023/06/24 08:33:56;;;;;;;17.00;12.03;;;;;;;;;;5017076;28;20468;-66
2023/06/24 08:36:24;;;;;;;14.00;12.37;;;;;;;;;;5017190;28;20481;-66
2023/06/24 08:38:51;;;;;;;14.20;12.70;;;;;;;;;;5017048;28;20466;-66
2023/06/24 08:41:20;;;;;;;13.03;11.67;;;;;;;;;;5017037;28;20536;-67
2023/06/24 08:43:47;;;;;;;14.80;12.40;;;;;;;;;;5016137;28;20830;-67
2023/06/24 08:46:16;;;;;;;14.43;13.03;;;;;;;;;;5016401;28;20534;-66
2023/06/24 08:48:44;;;;;;;15.90;12.23;;;;;;;;;;5016250;28;20461;-67
2023/06/24 08:51:13;;;;;;;13.63;12.33;;;;;;;;;;5016919;28;20916;-67
2023/06/24 08:53:43;;;;;;;16.37;14.30;;;;;;;;;;5016506;28;20439;-67
2023/06/24 08:56:10;;;;;;;14.93;12.60;;;;;;;;;;5017949;28;20483;-67
2023/06/24 08:58:39;;;;;;;12.03;10.83;;;;;;;;;;5016958;28;20856;-67
2023/06/24 09:01:07;;;;;;;10.83;9.70;;;;;;;;;;5016906;28;20452;-67
2023/06/24 09:03:35;;;;;;;12.00;10.33;;;;;;;;;;5016013;28;20454;-68
2023/06/24 09:06:02;;;;;;;12.33;11.13;;;;;;;;;;5016223;28;20536;-67
2023/06/24 09:08:29;;;;;;;13.97;11.90;;;;;;;;;;5015973;28;20496;-66
2023/06/24 09:10:57;;;;;;;10.90;9.80;;;;;;;;;;5015981;28;20457;-66
2023/06/24 09:13:29;;;;;;;10.80;9.70;;;;;;;;;;5016284;28;20832;-66
2023/06/24 09:15:59;;;;;;;9.47;8.53;;;;;;;;;;5016475;28;20975;-67
2023/06/24 09:18:32;;;;;;;9.20;8.10;;;;;;;;;;5016416;28;20439;-67
2023/06/24 09:21:01;;;;;;;10.47;8.70;;;;;;;;;;5016792;28;20477;-67
2023/06/24 09:23:28;;;;;;;12.33;9.30;;;;;;;;;;5015378;28;20454;-67
2023/06/24 09:25:58;;;;;;;10.67;9.67;;;;;;;;;;5015319;28;20950;-67
2023/06/24 09:28:28;;;;;;;11.67;10.40;;;;;;;;;;5015737;28;20917;-67
2023/06/24 09:31:07;;;;;;;14.10;12.40;;;;;;;;;;5016183;28;20433;-67
2023/06/24 09:33:35;;;;;;;13.93;11.23;;;;;;;;;;5015962;28;20448;-67
2023/06/24 09:36:03;;;;;;;13.87;12.57;;;;;;;;;;5016220;28;20564;-66
2023/06/24 09:38:34;;;;;;;12.93;11.53;;;;;;;;;;5015599;28;20498;-67
2023/06/24 09:41:04;;;;;;;15.00;11.67;;;;;;;;;;5015651;28;20484;-66
2023/06/24 09:43:31;;;;;;;13.00;11.20;;;;;;;;;;5015454;28;20443;-68
2023/06/24 09:45:59;;;;;;;15.27;13.77;;;;;;;;;;5015401;28;20460;-67
2023/06/24 09:48:28;;;;;;;12.23;10.83;;;;;;;;;;5015167;28;20453;-68
2023/06/24 09:50:55;;;;;;;16.77;12.90;;;;;;;;;;5015620;28;20547;-67
2023/06/24 09:53:23;;;;;;;13.70;12.40;;;;;;;;;;5015434;28;20467;-66
2023/06/24 09:55:50;;;;;;;12.70;11.40;;;;;;;;;;5015601;28;20492;-67
2023/06/24 09:58:20;;;;;;;11.87;9.93;;;;;;;;;;5016115;28;20773;-67
2023/06/24 10:00:47;;;;;;;13.00;11.60;;;;;;;;;;5015801;28;20444;-68
2023/06/24 10:03:15;;;;;;;14.33;11.57;;;;;;;;;;5015579;28;20444;-67
2023/06/24 10:05:44;;;;;;;12.10;10.80;;;;;;;;;;5015315;28;20446;-67
2023/06/24 10:08:12;;;;;;;13.53;11.10;;;;;;;;;;5015070;28;20444;-67
2023/06/24 10:10:39;;;;;;;11.10;9.77;;;;;;;;;;5014804;28;20450;-67
2023/06/24 10:13:06;;;;;;;12.10;10.90;;;;;;;;;;5015295;28;20441;-66
2023/06/24 10:15:33;;;;;;;11.73;10.53;;;;;;;;;;5015028;28;21014;-66
2023/06/24 10:18:03;;;;;;;14.87;11.20;;;;;;;;;;5015715;28;20450;-67
2023/06/24 10:20:30;;;;;;;13.07;11.70;;;;;;;;;;5014935;28;20481;-67
2023/06/24 10:22:59;;;;;;;12.70;11.40;;;;;;;;;;5015020;28;20455;-66
2023/06/24 10:25:37;;;;;;;16.30;11.43;;;;;;;;;;5014520;28;20801;-66
2023/06/24 10:28:04;;;;;;;11.30;10.20;;;;;;;;;;5014343;28;20441;-66
2023/06/24 10:30:33;;;;;;;12.13;10.80;;;;;;;;;;5014400;28;20446;-68
2023/06/24 10:33:00;;;;;;;12.37;11.20;;;;;;;;;;5015349;28;20446;-67
2023/06/24 10:35:29;;;;;;;11.60;10.47;;;;;;;;;;5014891;28;20897;-66
2023/06/24 10:37:58;;;;;;;13.03;11.87;;;;;;;;;;5014787;28;20448;-67
2023/06/24 10:40:38;;;;;;;12.80;10.80;;;;;;;;;;5014932;28;20453;-66
2023/06/24 10:43:26;;;;;;;12.73;10.47;;;;;;;;;;5014292;28;20930;-67
2023/06/24 10:45:54;;;;;;;19.33;11.73;;;;;;;;;;5014262;28;20454;-68
2023/06/24 10:48:21;;;;;;;14.53;11.20;;;;;;;;;;5014255;28;20453;-67
2023/06/24 10:50:49;;;;;;;11.67;10.50;;;;;;;;;;5013412;28;20788;-67
2023/06/24 10:53:19;;;;;;;16.70;11.23;;;;;;;;;;5014368;28;20446;-67
2023/06/24 10:55:46;;;;;;;12.60;10.20;;;;;;;;;;5014590;28;20496;-67
2023/06/24 10:58:15;;;;;;;15.47;11.07;;;;;;;;;;5014259;28;20436;-66
2023/06/24 11:00:43;;;;;;;12.00;10.87;;;;;;;;;;5014589;28;20460;-67
2023/06/24 11:03:10;;;;;;;11.40;10.00;;;;;;;;;;5014375;28;20453;-67
2023/06/24 11:05:40;;;;;;;10.90;9.80;;;;;;;;;;5013627;28;20455;-66
2023/06/24 11:08:07;;;;;;;12.80;11.57;;;;;;;;;;5013717;28;20445;-66
2023/06/24 11:10:43;;;;;;;10.83;9.60;;;;;;;;;;5013622;28;20450;-66
2023/06/24 11:13:10;;;;;;;10.23;8.10;;;;;;;;;;5014277;28;20972;-66
2023/06/24 11:15:38;;;;;;;14.33;10.60;;;;;;;;;;5013949;28;20594;-66
2023/06/24 11:18:05;;;;;;;13.90;12.57;;;;;;;;;;5014339;28;20456;-66
2023/06/24 11:20:32;;;;;;;14.23;12.60;;;;;;;;;;5014533;28;20477;-66
2023/06/24 11:22:59;;;;;;;13.50;12.20;;;;;;;;;;5013914;28;20451;-66
2023/06/24 11:25:26;;;;;;;13.30;11.90;;;;;;;;;;5013268;28;20449;-65
2023/06/24 11:27:55;;;;;;;14.70;11.17;;;;;;;;;;5014207;28;20433;-67
2023/06/24 11:30:23;;;;;;;13.50;12.10;;;;;;;;;;5014099;28;20444;-67
2023/06/24 11:32:50;;;;;;;15.23;11.00;;;;;;;;;;5014358;28;20467;-66
2023/06/24 11:35:17;;;;;;;11.40;9.97;;;;;;;;;;5014010;28;20533;-66
2023/06/24 11:37:45;;;;;;;11.43;10.40;;;;;;;;;;5014163;28;20489;-66
2023/06/24 11:40:12;;;;;;;8.63;7.80;;;;;;;;;;5014099;28;20449;-66
2023/06/24 11:42:41;;;;;;;7.03;6.43;;;;;;;;;;5013681;28;20448;-65
2023/06/24 11:45:11;;;;;;;8.83;7.93;;;;;;;;;;5013511;28;20456;-66
2023/06/24 11:47:38;;;;;;;8.83;7.97;;;;;;;;;;5014003;28;20488;-66
2023/06/24 11:50:06;;;;;;;9.90;8.90;;;;;;;;;;5013881;28;20419;-67
2023/06/24 11:52:34;;;;;;;14.93;9.80;;;;;;;;;;5013794;28;20484;-66
2023/06/24 11:55:02;;;;;;;10.60;8.60;;;;;;;;;;5013746;28;20495;-66
2023/06/24 11:57:48;;;;;;;9.57;8.63;;;;;;;;;;5013635;28;20477;-67
2023/06/24 12:00:17;;;;;;;8.87;8.07;;;;;;;;;;5013736;28;20459;-65
2023/06/24 12:02:44;;;;;;;8.10;7.30;;;;;;;;;;5013711;28;20447;-66
2023/06/24 12:05:11;;;;;;;8.13;7.33;;;;;;;;;;5013693;28;20445;-67
2023/06/24 12:07:38;;;;;;;6.93;6.33;;;;;;;;;;5013663;28;20449;-67
2023/06/24 12:10:06;;;;;;;10.30;6.73;;;;;;;;;;5013247;28;20541;-67
2023/06/24 12:12:33;;;;;;;8.00;7.10;;;;;;;;;;5013552;28;20858;-66
2023/06/24 12:15:00;;;;;;;7.63;6.93;;;;;;;;;;5013558;28;20457;-66
2023/06/24 12:17:29;;;;;;;9.37;7.33;;;;;;;;;;5013408;28;20540;-67
2023/06/24 12:19:56;;;;;;;7.90;7.10;;;;;;;;;;5013760;28;20526;-67
2023/06/24 12:22:23;;;;;;;7.27;6.20;;;;;;;;;;5013591;28;20443;-66
2023/06/24 12:24:50;;;;;;;7.03;6.37;;;;;;;;;;5013545;28;20450;-66
2023/06/24 12:27:17;;;;;;;6.10;5.50;;;;;;;;;;5013298;28;20450;-67
2023/06/24 12:29:45;;;;;;;7.07;6.27;;;;;;;;;;5013394;28;20452;-67
2023/06/24 12:32:12;;;;;;;7.73;6.93;;;;;;;;;;5013424;28;20424;-66
2023/06/24 12:34:40;;;;;;;6.87;6.20;;;;;;;;;;5013546;28;20446;-67
2023/06/24 12:37:08;;;;;;;7.80;5.80;;;;;;;;;;5013269;28;20544;-67
2023/06/24 12:39:35;;;;;;;7.07;6.37;;;;;;;;;;5012960;28;20451;-66
2023/06/24 12:42:02;;;;;;;6.80;6.10;;;;;;;;;;5012250;28;20447;-69
2023/06/24 12:44:29;;;;;;;6.60;6.10;;;;;;;;;;5012132;28;20938;-67
2023/06/24 12:46:56;;;;;;;8.30;7.33;;;;;;;;;;5013098;28;20445;-68
2023/06/24 12:49:23;;;;;;;6.10;5.50;;;;;;;;;;5032337;28;20456;-68
2023/06/24 12:51:52;;;;;;;6.40;5.90;;;;;;;;;;5032538;28;20428;-66
2023/06/24 12:54:19;;;;;;;5.50;5.00;;;;;;;;;;5032305;28;20532;-67
2023/06/24 12:56:46;;;;;;;7.33;6.63;;;;;;;;;;5032192;28;20472;-67
2023/06/24 12:59:13;;;;;;;7.07;6.37;;;;;;;;;;5032318;28;20426;-66
2023/06/24 13:01:44;;;;;;;7.47;6.33;;;;;;;;;;5032315;28;20478;-66
2023/06/24 13:04:11;;;;;;;6.33;5.30;;;;;;;;;;5032253;28;20479;-68
2023/06/24 13:06:39;;;;;;;6.70;6.07;;;;;;;;;;5032182;28;20419;-67
2023/06/24 13:09:08;;;;;;;7.03;5.83;;;;;;;;;;5032546;28;20443;-66
2023/06/24 13:11:37;;;;;;;6.07;5.57;;;;;;;;;;5032149;28;20453;-66
2023/06/24 13:14:04;;;;;;;6.40;5.80;;;;;;;;;;5015968;28;20464;-66
2023/06/24 13:16:31;;;;;;;6.57;5.97;;;;;;;;;;5015864;28;20524;-66
2023/06/24 13:18:58;;;;;;;5.77;5.27;;;;;;;;;;5015958;28;20425;-66
2023/06/24 13:21:26;;;;;;;5.60;5.00;;;;;;;;;;5015944;28;20520;-67
2023/06/24 13:23:53;;;;;;;6.77;6.03;;;;;;;;;;5016244;28;20416;-67
2023/06/24 13:26:21;;;;;;;5.37;4.87;;;;;;;;;;5016189;28;20428;-66
2023/06/24 13:28:49;;;;;;;6.33;5.80;;;;;;;;;;5015856;28;20511;-65
2023/06/24 13:31:16;;;;;;;6.63;6.03;;;;;;;;;;5016471;28;20481;-66
2023/06/24 13:33:43;;;;;;;5.50;5.03;;;;;;;;;;5015884;28;20504;-66
2023/06/24 13:36:13;;;;;;;7.10;6.43;;;;;;;;;;5015337;28;20408;-67
2023/06/24 13:38:41;;;;;;;6.13;5.57;;;;;;;;;;5015601;28;20455;-66
2023/06/24 13:41:08;;;;;;;6.17;5.57;;;;;;;;;;5015256;28;20852;-67
2023/06/24 13:43:37;;;;;;;5.97;5.37;;;;;;;;;;5015289;28;20440;-67
2023/06/24 13:46:04;;;;;;;6.83;5.80;;;;;;;;;;5015645;28;20437;-67
2023/06/24 13:48:31;;;;;;;6.10;5.63;;;;;;;;;;5015788;28;20565;-66
2023/06/24 13:50:59;;;;;;;6.53;5.90;;;;;;;;;;5015559;28;20543;-66
2023/06/24 13:53:26;;;;;;;5.97;5.47;;;;;;;;;;5015474;28;20426;-66
2023/06/24 13:55:53;;;;;;;5.33;4.93;;;;;;;;;;5015382;28;20444;-68
2023/06/24 13:58:20;;;;;;;5.80;5.37;;;;;;;;;;5015070;28;20488;-67
2023/06/24 14:00:49;;;;;;;5.47;5.00;;;;;;;;;;5014995;28;20462;-67
2023/06/24 14:03:16;;;;;;;4.17;3.57;;;;;;;;;;5015087;28;20821;-67
2023/06/24 14:05:43;;;;;;;4.80;4.40;;;;;;;;;;5015405;28;20449;-67
2023/06/24 14:08:10;;;;;;;4.40;4.10;;;;;;;;;;5015805;28;20511;-66
2023/06/24 14:10:38;;;;;;;4.60;4.20;;;;;;;;;;5015589;28;20434;-66
2023/06/24 14:13:05;;;;;;;4.90;3.70;;;;;;;;;;5014891;28;20455;-66
2023/06/24 14:15:32;;;;;;;4.10;3.70;;;;;;;;;;5014800;28;20446;-66
2023/06/24 14:18:01;;;;;;;4.13;3.73;;;;;;;;;;5014722;28;20482;-67
2023/06/24 14:20:28;;;;;;;4.43;4.03;;;;;;;;;;5014569;28;20488;-66
2023/06/24 14:22:55;;;;;;;3.93;3.63;;;;;;;;;;5014764;28;20481;-67
2023/06/24 14:25:22;;;;;;;4.00;3.70;;;;;;;;;;5014494;28;20446;-67
2023/06/24 14:27:49;;;;;;;6.43;4.20;;;;;;;;;;5015132;28;20458;-67